sensor_id;sensor_type;location;lat;lon;timestamp;P1;durP1;ratioP1;P2;durP2;ratioP2
64957;SDS011;51486;50.232;19.208;2024-03-07T00:01:35;19.60;;;10.27;;
64957;SDS011;51486;50.232;19.208;2024-03-07T00:04:00;24.83;;;10.90;;
64957;SDS011;51486;50.232;19.208;2024-03-07T00:06:26;24.37;;;10.00;;
64957;SDS011;51486;50.232;19.208;2024-03-07T00:08:51;21.63;;;9.57;;
64957;SDS011;51486;50.232;19.208;2024-03-07T00:11:17;25.43;;;10.53;;
64957;SDS011;51486;50.232;19.208;2024-03-07T00:13:42;23.33;;;10.90;;
64957;SDS011;51486;50.232;19.208;2024-03-07T00:16:08;32.73;;;11.17;;
64957;SDS011;51486;50.232;19.208;2024-03-07T00:18:35;25.60;;;11.60;;
64957;SDS011;51486;50.232;19.208;2024-03-07T00:21:01;31.77;;;11.17;;
64957;SDS011;51486;50.232;19.208;2024-03-07T00:23:28;27.27;;;10.50;;
64957;SDS011;51486;50.232;19.208;2024-03-07T00:25:53;26.27;;;10.97;;
64957;SDS011;51486;50.232;19.208;2024-03-07T00:28:19;32.43;;;11.70;;
64957;SDS011;51486;50.232;19.208;2024-03-07T00:30:44;18.33;;;10.13;;
64957;SDS011;51486;50.232;19.208;2024-03-07T00:33:11;25.53;;;10.47;;
64957;SDS011;51486;50.232;19.208;2024-03-07T00:35:36;26.40;;;11.60;;
64957;SDS011;51486;50.232;19.208;2024-03-07T00:38:02;27.23;;;10.47;;
64957;SDS011;51486;50.232;19.208;2024-03-07T00:40:28;28.40;;;10.57;;
64957;SDS011;51486;50.232;19.208;2024-03-07T00:42:54;29.97;;;11.80;;
64957;SDS011;51486;50.232;19.208;2024-03-07T00:45:20;29.07;;;11.17;;
64957;SDS011;51486;50.232;19.208;2024-03-07T00:47:45;22.40;;;10.13;;
64957;SDS011;51486;50.232;19.208;2024-03-07T00:50:10;24.67;;;11.93;;
64957;SDS011;51486;50.232;19.208;2024-03-07T00:52:36;33.27;;;12.53;;
64957;SDS011;51486;50.232;19.208;2024-03-07T00:55:03;34.43;;;12.10;;
64957;SDS011;51486;50.232;19.208;2024-03-07T00:57:29;34.70;;;12.77;;
64957;SDS011;51486;50.232;19.208;2024-03-07T00:59:54;27.30;;;11.43;;
64957;SDS011;51486;50.232;19.208;2024-03-07T01:02:20;36.53;;;13.57;;
64957;SDS011;51486;50.232;19.208;2024-03-07T01:04:45;27.37;;;12.17;;
64957;SDS011;51486;50.232;19.208;2024-03-07T01:07:11;29.87;;;13.43;;
64957;SDS011;51486;50.232;19.208;2024-03-07T01:09:36;39.47;;;13.43;;
64957;SDS011;51486;50.232;19.208;2024-03-07T01:12:02;31.93;;;12.03;;
64957;SDS011;51486;50.232;19.208;2024-03-07T01:14:30;23.97;;;12.03;;
64957;SDS011;51486;50.232;19.208;2024-03-07T01:16:56;34.20;;;13.03;;
64957;SDS011;51486;50.232;19.208;2024-03-07T01:19:21;28.37;;;11.97;;
64957;SDS011;51486;50.232;19.208;2024-03-07T01:21:47;31.97;;;11.87;;
64957;SDS011;51486;50.232;19.208;2024-03-07T01:24:13;29.53;;;12.57;;
64957;SDS011;51486;50.232;19.208;2024-03-07T01:26:43;27.73;;;11.97;;
64957;SDS011;51486;50.232;19.208;2024-03-07T01:29:08;24.93;;;10.67;;
64957;SDS011;51486;50.232;19.208;2024-03-07T01:31:34;24.50;;;9.83;;
64957;SDS011;51486;50.232;19.208;2024-03-07T01:33:59;27.73;;;12.93;;
64957;SDS011;51486;50.232;19.208;2024-03-07T01:36:25;29.23;;;10.97;;
64957;SDS011;51486;50.232;19.208;2024-03-07T01:38:50;22.63;;;11.47;;
64957;SDS011;51486;50.232;19.208;2024-03-07T01:41:16;29.63;;;11.70;;
64957;SDS011;51486;50.232;19.208;2024-03-07T01:43:42;31.97;;;12.47;;
64957;SDS011;51486;50.232;19.208;2024-03-07T01:46:08;30.83;;;12.40;;
64957;SDS011;51486;50.232;19.208;2024-03-07T01:48:35;34.07;;;11.60;;
64957;SDS011;51486;50.232;19.208;2024-03-07T01:51:01;37.67;;;12.53;;
64957;SDS011;51486;50.232;19.208;2024-03-07T01:53:30;29.03;;;11.93;;
64957;SDS011;51486;50.232;19.208;2024-03-07T01:55:56;21.73;;;10.83;;
64957;SDS011;51486;50.232;19.208;2024-03-07T01:58:22;35.03;;;12.57;;
64957;SDS011;51486;50.232;19.208;2024-03-07T02:00:49;26.87;;;11.47;;
64957;SDS011;51486;50.232;19.208;2024-03-07T02:03:15;25.33;;;11.73;;
64957;SDS011;51486;50.232;19.208;2024-03-07T02:05:41;23.90;;;11.00;;
64957;SDS011;51486;50.232;19.208;2024-03-07T02:08:07;33.23;;;12.57;;
64957;SDS011;51486;50.232;19.208;2024-03-07T02:10:32;26.40;;;12.67;;
64957;SDS011;51486;50.232;19.208;2024-03-07T02:12:58;28.93;;;11.33;;
64957;SDS011;51486;50.232;19.208;2024-03-07T02:15:23;24.97;;;12.53;;
64957;SDS011;51486;50.232;19.208;2024-03-07T02:17:48;30.20;;;13.00;;
64957;SDS011;51486;50.232;19.208;2024-03-07T02:20:14;24.83;;;12.10;;
64957;SDS011;51486;50.232;19.208;2024-03-07T02:22:41;24.97;;;11.97;;
64957;SDS011;51486;50.232;19.208;2024-03-07T02:25:07;27.40;;;12.00;;
64957;SDS011;51486;50.232;19.208;2024-03-07T02:27:36;33.73;;;12.07;;
64957;SDS011;51486;50.232;19.208;2024-03-07T02:30:02;33.17;;;12.97;;
64957;SDS011;51486;50.232;19.208;2024-03-07T02:32:29;28.03;;;12.37;;
64957;SDS011;51486;50.232;19.208;2024-03-07T02:34:54;28.13;;;12.23;;
64957;SDS011;51486;50.232;19.208;2024-03-07T02:37:20;30.90;;;12.07;;
64957;SDS011;51486;50.232;19.208;2024-03-07T02:39:46;27.37;;;11.60;;
64957;SDS011;51486;50.232;19.208;2024-03-07T02:42:11;33.73;;;13.03;;
64957;SDS011;51486;50.232;19.208;2024-03-07T02:44:37;30.10;;;12.33;;
64957;SDS011;51486;50.232;19.208;2024-03-07T02:47:04;27.37;;;12.40;;
64957;SDS011;51486;50.232;19.208;2024-03-07T02:49:30;25.27;;;11.47;;
64957;SDS011;51486;50.232;19.208;2024-03-07T02:51:56;28.70;;;11.60;;
64957;SDS011;51486;50.232;19.208;2024-03-07T02:54:21;34.97;;;12.13;;
64957;SDS011;51486;50.232;19.208;2024-03-07T02:56:47;29.83;;;12.63;;
64957;SDS011;51486;50.232;19.208;2024-03-07T02:59:12;44.87;;;14.43;;
64957;SDS011;51486;50.232;19.208;2024-03-07T03:01:38;34.33;;;13.07;;
64957;SDS011;51486;50.232;19.208;2024-03-07T03:04:04;31.33;;;12.57;;
64957;SDS011;51486;50.232;19.208;2024-03-07T03:06:30;28.63;;;12.73;;
64957;SDS011;51486;50.232;19.208;2024-03-07T03:08:56;27.83;;;12.00;;
64957;SDS011;51486;50.232;19.208;2024-03-07T03:11:22;32.83;;;13.23;;
64957;SDS011;51486;50.232;19.208;2024-03-07T03:13:48;33.97;;;13.53;;
64957;SDS011;51486;50.232;19.208;2024-03-07T03:16:14;28.67;;;12.23;;
64957;SDS011;51486;50.232;19.208;2024-03-07T03:18:40;26.53;;;12.73;;
64957;SDS011;51486;50.232;19.208;2024-03-07T03:21:06;28.43;;;12.77;;
64957;SDS011;51486;50.232;19.208;2024-03-07T03:23:32;33.23;;;12.33;;
64957;SDS011;51486;50.232;19.208;2024-03-07T03:25:59;32.60;;;12.80;;
64957;SDS011;51486;50.232;19.208;2024-03-07T03:28:25;33.13;;;12.97;;
64957;SDS011;51486;50.232;19.208;2024-03-07T03:30:51;28.40;;;13.67;;
64957;SDS011;51486;50.232;19.208;2024-03-07T03:33:16;38.23;;;12.57;;
64957;SDS011;51486;50.232;19.208;2024-03-07T03:35:43;33.10;;;12.53;;
64957;SDS011;51486;50.232;19.208;2024-03-07T03:38:09;32.07;;;12.20;;
64957;SDS011;51486;50.232;19.208;2024-03-07T03:40:35;25.03;;;11.43;;
64957;SDS011;51486;50.232;19.208;2024-03-07T03:43:01;27.80;;;10.57;;
64957;SDS011;51486;50.232;19.208;2024-03-07T03:45:27;29.40;;;12.47;;
64957;SDS011;51486;50.232;19.208;2024-03-07T03:47:53;22.87;;;11.60;;
64957;SDS011;51486;50.232;19.208;2024-03-07T03:50:19;27.37;;;12.17;;
64957;SDS011;51486;50.232;19.208;2024-03-07T03:52:45;27.60;;;10.93;;
64957;SDS011;51486;50.232;19.208;2024-03-07T03:55:11;24.33;;;11.47;;
64957;SDS011;51486;50.232;19.208;2024-03-07T03:57:40;27.50;;;12.37;;
64957;SDS011;51486;50.232;19.208;2024-03-07T04:00:08;28.23;;;11.90;;
64957;SDS011;51486;50.232;19.208;2024-03-07T04:02:38;27.80;;;12.03;;
64957;SDS011;51486;50.232;19.208;2024-03-07T04:05:04;28.03;;;11.53;;
64957;SDS011;51486;50.232;19.208;2024-03-07T04:07:30;24.80;;;11.60;;
64957;SDS011;51486;50.232;19.208;2024-03-07T04:10:00;25.60;;;11.17;;
64957;SDS011;51486;50.232;19.208;2024-03-07T04:12:28;27.67;;;10.87;;
64957;SDS011;51486;50.232;19.208;2024-03-07T04:14:54;22.10;;;10.40;;
64957;SDS011;51486;50.232;19.208;2024-03-07T04:17:21;29.77;;;10.67;;
64957;SDS011;51486;50.232;19.208;2024-03-07T04:19:46;25.20;;;10.17;;
64957;SDS011;51486;50.232;19.208;2024-03-07T04:22:12;28.23;;;12.27;;
64957;SDS011;51486;50.232;19.208;2024-03-07T04:24:38;30.83;;;10.93;;
64957;SDS011;51486;50.232;19.208;2024-03-07T04:27:05;26.57;;;11.57;;
64957;SDS011;51486;50.232;19.208;2024-03-07T04:29:32;27.47;;;11.37;;
64957;SDS011;51486;50.232;19.208;2024-03-07T04:31:58;23.47;;;10.20;;
64957;SDS011;51486;50.232;19.208;2024-03-07T04:34:24;33.63;;;12.40;;
64957;SDS011;51486;50.232;19.208;2024-03-07T04:36:50;24.50;;;11.00;;
64957;SDS011;51486;50.232;19.208;2024-03-07T04:39:16;22.40;;;11.27;;
64957;SDS011;51486;50.232;19.208;2024-03-07T04:42:02;26.03;;;11.60;;
64957;SDS011;51486;50.232;19.208;2024-03-07T04:44:28;29.50;;;11.17;;
64957;SDS011;51486;50.232;19.208;2024-03-07T04:46:54;27.73;;;11.17;;
64957;SDS011;51486;50.232;19.208;2024-03-07T04:49:25;30.33;;;12.50;;
64957;SDS011;51486;50.232;19.208;2024-03-07T04:51:51;28.70;;;11.07;;
64957;SDS011;51486;50.232;19.208;2024-03-07T04:54:18;29.70;;;12.30;;
64957;SDS011;51486;50.232;19.208;2024-03-07T04:56:47;29.07;;;12.23;;
64957;SDS011;51486;50.232;19.208;2024-03-07T04:59:14;26.40;;;11.47;;
64957;SDS011;51486;50.232;19.208;2024-03-07T05:01:41;33.33;;;11.77;;
64957;SDS011;51486;50.232;19.208;2024-03-07T05:04:07;25.47;;;10.43;;
64957;SDS011;51486;50.232;19.208;2024-03-07T05:06:33;27.23;;;11.43;;
64957;SDS011;51486;50.232;19.208;2024-03-07T05:09:03;27.13;;;11.33;;
64957;SDS011;51486;50.232;19.208;2024-03-07T05:11:29;29.50;;;11.77;;
64957;SDS011;51486;50.232;19.208;2024-03-07T05:13:55;20.67;;;9.93;;
64957;SDS011;51486;50.232;19.208;2024-03-07T05:16:20;36.57;;;11.90;;
64957;SDS011;51486;50.232;19.208;2024-03-07T05:18:46;22.50;;;10.17;;
64957;SDS011;51486;50.232;19.208;2024-03-07T05:21:12;22.60;;;11.37;;
64957;SDS011;51486;50.232;19.208;2024-03-07T05:23:56;24.47;;;10.23;;
64957;SDS011;51486;50.232;19.208;2024-03-07T05:26:23;26.10;;;11.03;;
64957;SDS011;51486;50.232;19.208;2024-03-07T05:28:48;25.13;;;10.83;;
64957;SDS011;51486;50.232;19.208;2024-03-07T05:31:14;27.33;;;12.73;;
64957;SDS011;51486;50.232;19.208;2024-03-07T05:33:40;25.83;;;12.50;;
64957;SDS011;51486;50.232;19.208;2024-03-07T05:36:06;27.40;;;11.17;;
64957;SDS011;51486;50.232;19.208;2024-03-07T05:38:41;28.27;;;12.37;;
64957;SDS011;51486;50.232;19.208;2024-03-07T05:41:13;26.20;;;10.83;;
64957;SDS011;51486;50.232;19.208;2024-03-07T05:43:39;25.70;;;10.70;;
64957;SDS011;51486;50.232;19.208;2024-03-07T05:46:05;23.17;;;10.97;;
64957;SDS011;51486;50.232;19.208;2024-03-07T05:48:35;36.77;;;11.40;;
64957;SDS011;51486;50.232;19.208;2024-03-07T05:51:01;36.20;;;12.33;;
64957;SDS011;51486;50.232;19.208;2024-03-07T05:53:26;25.17;;;11.33;;
64957;SDS011;51486;50.232;19.208;2024-03-07T05:55:52;27.50;;;11.00;;
64957;SDS011;51486;50.232;19.208;2024-03-07T05:58:18;29.77;;;12.10;;
64957;SDS011;51486;50.232;19.208;2024-03-07T06:00:45;30.23;;;11.67;;
64957;SDS011;51486;50.232;19.208;2024-03-07T06:03:19;27.47;;;11.10;;
64957;SDS011;51486;50.232;19.208;2024-03-07T06:05:45;24.20;;;12.00;;
64957;SDS011;51486;50.232;19.208;2024-03-07T06:08:15;34.17;;;12.40;;
64957;SDS011;51486;50.232;19.208;2024-03-07T06:10:42;29.73;;;12.47;;
64957;SDS011;51486;50.232;19.208;2024-03-07T06:13:11;23.20;;;10.13;;
64957;SDS011;51486;50.232;19.208;2024-03-07T06:15:38;31.43;;;12.97;;
64957;SDS011;51486;50.232;19.208;2024-03-07T06:18:04;41.77;;;13.73;;
64957;SDS011;51486;50.232;19.208;2024-03-07T06:20:33;33.43;;;12.90;;
64957;SDS011;51486;50.232;19.208;2024-03-07T06:23:00;34.03;;;12.70;;
64957;SDS011;51486;50.232;19.208;2024-03-07T06:25:30;31.33;;;11.03;;
64957;SDS011;51486;50.232;19.208;2024-03-07T06:28:02;25.93;;;11.27;;
64957;SDS011;51486;50.232;19.208;2024-03-07T06:30:37;33.10;;;13.03;;
64957;SDS011;51486;50.232;19.208;2024-03-07T06:33:05;27.37;;;11.83;;
64957;SDS011;51486;50.232;19.208;2024-03-07T06:35:30;31.10;;;13.03;;
64957;SDS011;51486;50.232;19.208;2024-03-07T06:37:56;26.50;;;12.73;;
64957;SDS011;51486;50.232;19.208;2024-03-07T06:40:22;29.33;;;11.60;;
64957;SDS011;51486;50.232;19.208;2024-03-07T06:42:50;29.33;;;12.80;;
64957;SDS011;51486;50.232;19.208;2024-03-07T06:45:18;32.17;;;10.87;;
64957;SDS011;51486;50.232;19.208;2024-03-07T06:47:43;26.67;;;11.93;;
64957;SDS011;51486;50.232;19.208;2024-03-07T06:50:09;26.33;;;10.87;;
64957;SDS011;51486;50.232;19.208;2024-03-07T06:52:39;33.27;;;11.97;;
64957;SDS011;51486;50.232;19.208;2024-03-07T06:55:06;23.83;;;11.43;;
64957;SDS011;51486;50.232;19.208;2024-03-07T06:57:34;37.27;;;12.53;;
64957;SDS011;51486;50.232;19.208;2024-03-07T07:00:00;33.90;;;12.60;;
64957;SDS011;51486;50.232;19.208;2024-03-07T07:02:26;26.40;;;12.33;;
64957;SDS011;51486;50.232;19.208;2024-03-07T07:04:53;27.10;;;12.40;;
64957;SDS011;51486;50.232;19.208;2024-03-07T07:07:18;28.90;;;12.37;;
64957;SDS011;51486;50.232;19.208;2024-03-07T07:09:45;27.73;;;12.27;;
64957;SDS011;51486;50.232;19.208;2024-03-07T07:12:11;31.33;;;13.37;;
64957;SDS011;51486;50.232;19.208;2024-03-07T07:14:37;28.63;;;14.20;;
64957;SDS011;51486;50.232;19.208;2024-03-07T07:17:04;32.97;;;13.63;;
64957;SDS011;51486;50.232;19.208;2024-03-07T07:19:30;29.53;;;12.97;;
64957;SDS011;51486;50.232;19.208;2024-03-07T07:21:55;34.43;;;13.33;;
64957;SDS011;51486;50.232;19.208;2024-03-07T07:24:22;32.77;;;12.83;;
64957;SDS011;51486;50.232;19.208;2024-03-07T07:26:49;31.90;;;12.30;;
64957;SDS011;51486;50.232;19.208;2024-03-07T07:29:15;26.80;;;12.27;;
64957;SDS011;51486;50.232;19.208;2024-03-07T07:31:41;29.80;;;12.33;;
64957;SDS011;51486;50.232;19.208;2024-03-07T07:34:07;31.93;;;12.90;;
64957;SDS011;51486;50.232;19.208;2024-03-07T07:36:33;27.47;;;12.47;;
64957;SDS011;51486;50.232;19.208;2024-03-07T07:38:59;29.40;;;13.30;;
64957;SDS011;51486;50.232;19.208;2024-03-07T07:41:25;30.30;;;13.70;;
64957;SDS011;51486;50.232;19.208;2024-03-07T07:43:50;28.63;;;12.43;;
64957;SDS011;51486;50.232;19.208;2024-03-07T07:46:17;33.63;;;13.43;;
64957;SDS011;51486;50.232;19.208;2024-03-07T07:48:43;28.53;;;13.30;;
64957;SDS011;51486;50.232;19.208;2024-03-07T07:51:09;29.40;;;13.70;;
64957;SDS011;51486;50.232;19.208;2024-03-07T07:53:34;29.13;;;14.30;;
64957;SDS011;51486;50.232;19.208;2024-03-07T07:56:00;24.13;;;11.57;;
64957;SDS011;51486;50.232;19.208;2024-03-07T07:58:26;37.37;;;13.57;;
64957;SDS011;51486;50.232;19.208;2024-03-07T08:00:52;28.47;;;12.10;;
64957;SDS011;51486;50.232;19.208;2024-03-07T08:03:17;37.40;;;13.83;;
64957;SDS011;51486;50.232;19.208;2024-03-07T08:05:43;29.73;;;13.07;;
64957;SDS011;51486;50.232;19.208;2024-03-07T08:08:12;34.87;;;15.47;;
64957;SDS011;51486;50.232;19.208;2024-03-07T08:10:41;42.40;;;14.27;;
64957;SDS011;51486;50.232;19.208;2024-03-07T08:13:07;37.77;;;13.03;;
64957;SDS011;51486;50.232;19.208;2024-03-07T08:15:38;28.90;;;13.37;;
64957;SDS011;51486;50.232;19.208;2024-03-07T08:18:04;34.87;;;12.00;;
64957;SDS011;51486;50.232;19.208;2024-03-07T08:20:33;26.23;;;12.60;;
64957;SDS011;51486;50.232;19.208;2024-03-07T08:23:00;32.27;;;13.53;;
64957;SDS011;51486;50.232;19.208;2024-03-07T08:25:26;26.67;;;12.47;;
64957;SDS011;51486;50.232;19.208;2024-03-07T08:27:54;28.93;;;11.83;;
64957;SDS011;51486;50.232;19.208;2024-03-07T08:30:21;31.80;;;14.30;;
64957;SDS011;51486;50.232;19.208;2024-03-07T08:32:57;34.67;;;14.77;;
64957;SDS011;51486;50.232;19.208;2024-03-07T08:35:24;28.90;;;14.63;;
64957;SDS011;51486;50.232;19.208;2024-03-07T08:37:51;32.53;;;13.07;;
64957;SDS011;51486;50.232;19.208;2024-03-07T08:40:24;29.87;;;13.43;;
64957;SDS011;51486;50.232;19.208;2024-03-07T08:42:58;37.47;;;13.27;;
64957;SDS011;51486;50.232;19.208;2024-03-07T08:45:25;25.93;;;12.40;;
64957;SDS011;51486;50.232;19.208;2024-03-07T08:47:52;30.50;;;14.17;;
64957;SDS011;51486;50.232;19.208;2024-03-07T08:50:20;38.07;;;13.77;;
64957;SDS011;51486;50.232;19.208;2024-03-07T08:52:47;34.07;;;13.87;;
64957;SDS011;51486;50.232;19.208;2024-03-07T08:55:22;33.33;;;13.83;;
64957;SDS011;51486;50.232;19.208;2024-03-07T08:57:50;35.03;;;13.30;;
64957;SDS011;51486;50.232;19.208;2024-03-07T09:00:17;27.40;;;13.67;;
64957;SDS011;51486;50.232;19.208;2024-03-07T09:02:56;31.03;;;13.60;;
64957;SDS011;51486;50.232;19.208;2024-03-07T09:05:29;33.10;;;14.87;;
64957;SDS011;51486;50.232;19.208;2024-03-07T09:07:58;31.43;;;14.13;;
64957;SDS011;51486;50.232;19.208;2024-03-07T09:10:24;29.10;;;12.80;;
64957;SDS011;51486;50.232;19.208;2024-03-07T09:12:51;26.20;;;12.33;;
64957;SDS011;51486;50.232;19.208;2024-03-07T09:15:17;27.33;;;11.93;;
64957;SDS011;51486;50.232;19.208;2024-03-07T09:17:46;30.33;;;14.00;;
64957;SDS011;51486;50.232;19.208;2024-03-07T09:20:12;33.00;;;13.87;;
64957;SDS011;51486;50.232;19.208;2024-03-07T09:22:42;32.93;;;14.57;;
64957;SDS011;51486;50.232;19.208;2024-03-07T09:25:12;32.30;;;14.30;;
64957;SDS011;51486;50.232;19.208;2024-03-07T09:27:38;24.40;;;11.93;;
64957;SDS011;51486;50.232;19.208;2024-03-07T09:30:08;32.13;;;13.90;;
64957;SDS011;51486;50.232;19.208;2024-03-07T09:32:43;28.77;;;13.47;;
64957;SDS011;51486;50.232;19.208;2024-03-07T09:35:09;39.40;;;15.17;;
64957;SDS011;51486;50.232;19.208;2024-03-07T09:37:39;32.90;;;13.83;;
64957;SDS011;51486;50.232;19.208;2024-03-07T09:40:08;34.17;;;15.83;;
64957;SDS011;51486;50.232;19.208;2024-03-07T09:42:42;33.47;;;13.57;;
64957;SDS011;51486;50.232;19.208;2024-03-07T09:45:13;30.23;;;13.57;;
64957;SDS011;51486;50.232;19.208;2024-03-07T09:47:47;38.60;;;14.03;;
64957;SDS011;51486;50.232;19.208;2024-03-07T09:50:16;42.27;;;13.37;;
64957;SDS011;51486;50.232;19.208;2024-03-07T09:52:49;36.83;;;13.13;;
64957;SDS011;51486;50.232;19.208;2024-03-07T09:55:17;34.67;;;13.20;;
64957;SDS011;51486;50.232;19.208;2024-03-07T09:57:44;29.73;;;13.30;;
64957;SDS011;51486;50.232;19.208;2024-03-07T10:00:12;29.47;;;15.03;;
64957;SDS011;51486;50.232;19.208;2024-03-07T10:02:47;25.83;;;12.80;;
64957;SDS011;51486;50.232;19.208;2024-03-07T10:05:15;29.40;;;12.67;;
64957;SDS011;51486;50.232;19.208;2024-03-07T10:07:44;37.13;;;14.00;;
64957;SDS011;51486;50.232;19.208;2024-03-07T10:10:11;36.83;;;15.23;;
64957;SDS011;51486;50.232;19.208;2024-03-07T10:12:40;28.43;;;13.97;;
64957;SDS011;51486;50.232;19.208;2024-03-07T10:15:06;37.67;;;14.43;;
64957;SDS011;51486;50.232;19.208;2024-03-07T10:17:35;29.27;;;13.43;;
64957;SDS011;51486;50.232;19.208;2024-03-07T10:20:02;30.27;;;13.83;;
64957;SDS011;51486;50.232;19.208;2024-03-07T10:22:28;47.43;;;15.73;;
64957;SDS011;51486;50.232;19.208;2024-03-07T10:24:55;29.80;;;13.20;;
64957;SDS011;51486;50.232;19.208;2024-03-07T10:27:22;33.60;;;14.00;;
64957;SDS011;51486;50.232;19.208;2024-03-07T10:29:48;36.57;;;13.57;;
64957;SDS011;51486;50.232;19.208;2024-03-07T10:32:20;34.63;;;14.47;;
64957;SDS011;51486;50.232;19.208;2024-03-07T10:34:47;32.77;;;14.10;;
64957;SDS011;51486;50.232;19.208;2024-03-07T10:37:18;29.30;;;13.07;;
64957;SDS011;51486;50.232;19.208;2024-03-07T10:39:50;27.83;;;12.73;;
64957;SDS011;51486;50.232;19.208;2024-03-07T10:42:16;30.97;;;14.10;;
64957;SDS011;51486;50.232;19.208;2024-03-07T10:44:43;32.07;;;13.83;;
64957;SDS011;51486;50.232;19.208;2024-03-07T10:47:19;34.10;;;14.03;;
64957;SDS011;51486;50.232;19.208;2024-03-07T10:49:53;33.40;;;13.10;;
64957;SDS011;51486;50.232;19.208;2024-03-07T10:52:38;30.00;;;12.47;;
64957;SDS011;51486;50.232;19.208;2024-03-07T10:55:23;29.17;;;13.53;;
64957;SDS011;51486;50.232;19.208;2024-03-07T11:01:15;36.03;;;14.60;;
64957;SDS011;51486;50.232;19.208;2024-03-07T11:03:45;38.17;;;15.43;;
64957;SDS011;51486;50.232;19.208;2024-03-07T11:06:11;33.83;;;13.87;;
64957;SDS011;51486;50.232;19.208;2024-03-07T11:08:39;32.80;;;14.30;;
64957;SDS011;51486;50.232;19.208;2024-03-07T11:11:06;25.90;;;12.57;;
64957;SDS011;51486;50.232;19.208;2024-03-07T11:13:33;36.90;;;14.13;;
64957;SDS011;51486;50.232;19.208;2024-03-07T11:15:59;32.13;;;13.70;;
64957;SDS011;51486;50.232;19.208;2024-03-07T11:18:26;36.27;;;13.73;;
64957;SDS011;51486;50.232;19.208;2024-03-07T11:20:52;30.40;;;12.83;;
64957;SDS011;51486;50.232;19.208;2024-03-07T11:23:26;31.77;;;13.40;;
64957;SDS011;51486;50.232;19.208;2024-03-07T11:26:03;25.03;;;12.10;;
64957;SDS011;51486;50.232;19.208;2024-03-07T11:28:37;32.93;;;13.67;;
64957;SDS011;51486;50.232;19.208;2024-03-07T11:31:07;31.33;;;14.00;;
64957;SDS011;51486;50.232;19.208;2024-03-07T11:33:40;37.97;;;12.60;;
64957;SDS011;51486;50.232;19.208;2024-03-07T11:36:07;32.80;;;14.07;;
64957;SDS011;51486;50.232;19.208;2024-03-07T11:38:34;30.80;;;13.00;;
64957;SDS011;51486;50.232;19.208;2024-03-07T11:41:00;39.43;;;14.63;;
64957;SDS011;51486;50.232;19.208;2024-03-07T11:43:27;31.10;;;14.57;;
64957;SDS011;51486;50.232;19.208;2024-03-07T11:45:53;27.43;;;11.57;;
64957;SDS011;51486;50.232;19.208;2024-03-07T11:48:22;33.00;;;13.77;;
64957;SDS011;51486;50.232;19.208;2024-03-07T11:50:49;26.43;;;12.67;;
64957;SDS011;51486;50.232;19.208;2024-03-07T11:53:15;31.10;;;13.23;;
64957;SDS011;51486;50.232;19.208;2024-03-07T11:55:42;42.97;;;14.33;;
64957;SDS011;51486;50.232;19.208;2024-03-07T11:58:17;29.77;;;11.60;;
64957;SDS011;51486;50.232;19.208;2024-03-07T12:00:47;34.17;;;14.03;;
64957;SDS011;51486;50.232;19.208;2024-03-07T12:03:13;25.27;;;12.20;;
64957;SDS011;51486;50.232;19.208;2024-03-07T12:05:42;33.47;;;11.93;;
64957;SDS011;51486;50.232;19.208;2024-03-07T12:08:08;35.43;;;14.87;;
64957;SDS011;51486;50.232;19.208;2024-03-07T12:10:36;30.17;;;13.30;;
64957;SDS011;51486;50.232;19.208;2024-03-07T12:13:04;36.10;;;13.00;;
64957;SDS011;51486;50.232;19.208;2024-03-07T12:15:32;29.17;;;12.83;;
64957;SDS011;51486;50.232;19.208;2024-03-07T12:18:00;32.87;;;13.93;;
64957;SDS011;51486;50.232;19.208;2024-03-07T12:20:27;26.73;;;12.37;;
64957;SDS011;51486;50.232;19.208;2024-03-07T12:22:59;29.60;;;13.13;;
64957;SDS011;51486;50.232;19.208;2024-03-07T12:25:28;33.23;;;14.10;;
64957;SDS011;51486;50.232;19.208;2024-03-07T12:30:57;35.70;;;12.50;;
64957;SDS011;51486;50.232;19.208;2024-03-07T12:33:22;34.90;;;12.93;;
64957;SDS011;51486;50.232;19.208;2024-03-07T12:35:52;47.77;;;15.63;;
64957;SDS011;51486;50.232;19.208;2024-03-07T12:38:25;28.10;;;13.57;;
64957;SDS011;51486;50.232;19.208;2024-03-07T12:43:43;26.60;;;12.57;;
64957;SDS011;51486;50.232;19.208;2024-03-07T12:46:10;37.20;;;15.20;;
64957;SDS011;51486;50.232;19.208;2024-03-07T12:48:40;38.07;;;13.50;;
64957;SDS011;51486;50.232;19.208;2024-03-07T12:51:06;40.67;;;14.27;;
64957;SDS011;51486;50.232;19.208;2024-03-07T12:53:32;29.03;;;13.07;;
64957;SDS011;51486;50.232;19.208;2024-03-07T12:56:00;31.87;;;11.47;;
64957;SDS011;51486;50.232;19.208;2024-03-07T12:58:26;39.17;;;12.60;;
64957;SDS011;51486;50.232;19.208;2024-03-07T13:00:57;22.37;;;11.53;;
64957;SDS011;51486;50.232;19.208;2024-03-07T13:03:23;32.00;;;13.07;;
64957;SDS011;51486;50.232;19.208;2024-03-07T13:05:56;27.83;;;13.83;;
64957;SDS011;51486;50.232;19.208;2024-03-07T13:08:26;31.17;;;12.20;;
64957;SDS011;51486;50.232;19.208;2024-03-07T13:10:55;28.13;;;11.53;;
64957;SDS011;51486;50.232;19.208;2024-03-07T13:13:21;29.93;;;11.20;;
64957;SDS011;51486;50.232;19.208;2024-03-07T13:15:47;28.07;;;11.00;;
64957;SDS011;51486;50.232;19.208;2024-03-07T13:18:14;25.13;;;12.33;;
64957;SDS011;51486;50.232;19.208;2024-03-07T13:20:40;29.47;;;12.50;;
64957;SDS011;51486;50.232;19.208;2024-03-07T13:23:08;28.70;;;11.43;;
64957;SDS011;51486;50.232;19.208;2024-03-07T13:25:35;29.43;;;12.07;;
64957;SDS011;51486;50.232;19.208;2024-03-07T13:30:38;27.80;;;11.07;;
64957;SDS011;51486;50.232;19.208;2024-03-07T13:33:08;25.80;;;12.47;;
64957;SDS011;51486;50.232;19.208;2024-03-07T13:35:39;23.53;;;10.97;;
64957;SDS011;51486;50.232;19.208;2024-03-07T13:38:05;30.30;;;12.47;;
64957;SDS011;51486;50.232;19.208;2024-03-07T13:40:32;30.43;;;12.70;;
64957;SDS011;51486;50.232;19.208;2024-03-07T13:43:03;33.37;;;12.57;;
64957;SDS011;51486;50.232;19.208;2024-03-07T13:45:30;21.63;;;10.97;;
64957;SDS011;51486;50.232;19.208;2024-03-07T13:48:04;23.50;;;10.30;;
64957;SDS011;51486;50.232;19.208;2024-03-07T13:50:31;28.97;;;11.83;;
64957;SDS011;51486;50.232;19.208;2024-03-07T13:52:59;24.30;;;9.33;;
64957;SDS011;51486;50.232;19.208;2024-03-07T14:32:58;16.13;;;7.50;;
64957;SDS011;51486;50.232;19.208;2024-03-07T14:38:25;24.90;;;8.63;;
64957;SDS011;51486;50.232;19.208;2024-03-07T14:40:54;24.03;;;7.77;;
64957;SDS011;51486;50.232;19.208;2024-03-07T14:43:21;18.53;;;8.23;;
64957;SDS011;51486;50.232;19.208;2024-03-07T14:45:47;14.37;;;7.33;;
64957;SDS011;51486;50.232;19.208;2024-03-07T14:48:15;16.23;;;6.80;;
64957;SDS011;51486;50.232;19.208;2024-03-07T14:50:44;15.67;;;7.33;;
64957;SDS011;51486;50.232;19.208;2024-03-07T14:53:12;16.23;;;6.83;;
64957;SDS011;51486;50.232;19.208;2024-03-07T14:55:39;17.10;;;6.50;;
64957;SDS011;51486;50.232;19.208;2024-03-07T14:58:05;20.67;;;7.53;;
64957;SDS011;51486;50.232;19.208;2024-03-07T15:00:36;18.80;;;8.43;;
64957;SDS011;51486;50.232;19.208;2024-03-07T15:03:07;16.37;;;7.67;;